createdAt,value
2018-09-12T00:00:56.050Z,18.96
2018-09-12T00:02:59.061Z,18.96
2018-09-12T00:05:02.089Z,19.03
2018-09-12T00:07:05.156Z,18.97
2018-09-12T00:09:10.183Z,19.02
2018-09-12T00:11:13.196Z,18.98
2018-09-12T00:13:16.222Z,18.96
2018-09-12T00:15:21.178Z,18.90
2018-09-12T00:17:24.194Z,18.84
2018-09-12T00:19:27.223Z,18.86
2018-09-12T00:21:30.237Z,18.86
2018-09-12T00:23:33.250Z,18.77
2018-09-12T00:25:36.275Z,18.72
2018-09-12T00:27:39.384Z,18.68
2018-09-12T00:29:42.381Z,18.68
2018-09-12T00:31:45.415Z,18.57
2018-09-12T00:33:50.094Z,18.57
2018-09-12T00:35:53.634Z,18.56
2018-09-12T00:37:56.687Z,18.50
2018-09-12T00:39:59.716Z,18.53
2018-09-12T00:42:02.729Z,18.60
2018-09-12T00:44:06.039Z,18.60
2018-09-12T00:46:09.098Z,18.65
2018-09-12T00:48:12.118Z,18.61
2018-09-12T00:50:15.452Z,18.67
2018-09-12T00:52:19.554Z,18.63
2018-09-12T00:54:22.563Z,18.61
2018-09-12T00:56:25.619Z,18.65
2018-09-12T00:58:28.810Z,18.63
2018-09-12T01:00:31.842Z,18.60
2018-09-12T01:02:34.879Z,18.60
2018-09-12T01:04:37.897Z,18.54
2018-09-12T01:06:40.947Z,18.59
2018-09-12T01:08:43.959Z,18.53
2018-09-12T01:10:46.992Z,18.57
2018-09-12T01:12:51.200Z,18.49
2018-09-12T01:14:54.247Z,18.53
2018-09-12T01:16:57.359Z,18.43
2018-09-12T01:19:00.434Z,18.52
2018-09-12T01:21:03.511Z,18.57
2018-09-12T01:23:06.528Z,18.59
2018-09-12T01:25:09.577Z,18.63
2018-09-12T01:27:12.566Z,18.63
2018-09-12T01:29:15.577Z,18.59
2018-09-12T01:31:20.454Z,18.50
2018-09-12T01:33:23.471Z,18.53
2018-09-12T01:35:26.475Z,18.48
2018-09-12T01:37:29.479Z,18.41
2018-09-12T01:39:32.490Z,18.50
2018-09-12T01:41:35.545Z,18.41
2018-09-12T01:43:38.555Z,18.37
2018-09-12T01:45:41.554Z,18.38
2018-09-12T01:47:44.682Z,18.32
2018-09-12T01:49:47.682Z,18.28
2018-09-12T01:51:51.912Z,18.23
2018-09-12T01:53:55.226Z,18.27
2018-09-12T01:55:58.194Z,18.19
2018-09-12T01:58:01.169Z,18.19
2018-09-12T02:00:04.694Z,18.24
2018-09-12T02:02:07.711Z,18.25
2018-09-12T02:04:10.659Z,18.06
2018-09-12T02:06:13.627Z,18.00
2018-09-12T02:08:16.587Z,18.02
2018-09-12T02:10:20.571Z,18.04
2018-09-12T02:12:23.586Z,18.04
2018-09-12T02:14:26.575Z,17.99
2018-09-12T02:16:29.516Z,18.06
2018-09-12T02:18:32.524Z,18.12
2018-09-12T02:20:35.525Z,18.12
2018-09-12T02:22:38.508Z,18.19
2018-09-12T02:24:41.518Z,18.12
2018-09-12T02:26:44.531Z,18.10
2018-09-12T02:28:47.704Z,17.99
2018-09-12T02:30:52.466Z,18.16
2018-09-12T02:32:55.434Z,18.15
2018-09-12T02:34:58.417Z,17.95
2018-09-12T02:37:01.388Z,17.87
2018-09-12T02:39:08.415Z,18.13
2018-09-12T02:41:11.391Z,17.95
2018-09-12T02:43:14.374Z,17.95
2018-09-12T02:45:17.396Z,18.01
2018-09-12T02:47:27.538Z,17.96
2018-09-12T02:49:30.518Z,17.85
2018-09-12T02:51:33.557Z,17.76
2018-09-12T02:53:36.523Z,17.68
2018-09-12T02:55:39.538Z,17.71
2018-09-12T02:57:42.549Z,17.73
2018-09-12T02:59:45.515Z,17.61
2018-09-12T03:01:50.485Z,17.51
2018-09-12T03:03:53.511Z,17.47
2018-09-12T03:05:56.496Z,17.48
2018-09-12T03:07:59.530Z,17.50
2018-09-12T03:10:02.608Z,17.55
2018-09-12T03:12:05.632Z,17.59
2018-09-12T03:14:08.639Z,17.60
2018-09-12T03:16:11.614Z,17.48
2018-09-12T03:18:14.634Z,17.44
2018-09-12T03:20:17.615Z,17.45
2018-09-12T03:22:22.288Z,17.53
2018-09-12T03:24:25.300Z,17.49
2018-09-12T03:26:28.601Z,17.58
2018-09-12T03:28:31.571Z,17.60
2018-09-12T03:30:34.528Z,17.43
2018-09-12T03:32:37.639Z,17.47
2018-09-12T03:34:40.600Z,17.41
2018-09-12T03:36:43.555Z,17.33
2018-09-12T03:38:46.592Z,17.33
2018-09-12T03:40:50.878Z,17.30
2018-09-12T03:42:53.899Z,17.31
2018-09-12T03:44:56.876Z,17.36
2018-09-12T03:46:59.873Z,17.32
2018-09-12T03:49:02.891Z,17.30
2018-09-12T03:51:05.862Z,17.29
2018-09-12T03:53:08.860Z,17.23
2018-09-12T03:55:11.903Z,17.12
2018-09-12T03:57:14.899Z,17.16
2018-09-12T03:59:17.913Z,17.15
2018-09-12T04:01:21.052Z,17.16
2018-09-12T04:03:24.205Z,17.19
2018-09-12T04:05:27.199Z,17.08
2018-09-12T04:07:30.178Z,17.07
2018-09-12T04:09:34.042Z,17.14
2018-09-12T04:11:36.975Z,17.03
2018-09-12T04:13:44.592Z,17.09
2018-09-12T04:15:47.595Z,17.23
2018-09-12T04:17:51.942Z,17.23
2018-09-12T04:19:54.875Z,17.17
2018-09-12T04:21:57.819Z,17.16
2018-09-12T04:24:00.815Z,17.11
2018-09-12T04:26:03.796Z,16.98
2018-09-12T04:28:06.793Z,17.01
2018-09-12T04:30:09.758Z,17.02
2018-09-12T04:34:27.962Z,17.18
2018-09-12T04:36:30.931Z,17.07
2018-09-12T04:38:33.867Z,17.01
2018-09-12T04:40:37.213Z,16.98
2018-09-12T04:42:40.226Z,16.99
2018-09-12T04:44:43.222Z,16.97
2018-09-12T04:46:46.447Z,17.01
2018-09-12T04:48:51.234Z,16.98
2018-09-12T04:50:54.614Z,17.02
2018-09-12T04:52:57.781Z,16.97
2018-09-12T04:55:00.764Z,16.91
2018-09-12T04:57:03.898Z,16.94
2018-09-12T04:59:06.931Z,16.99
2018-09-12T05:01:09.932Z,16.98
2018-09-12T05:03:12.935Z,16.97
2018-09-12T05:05:16.001Z,17.01
2018-09-12T05:07:20.092Z,16.95
2018-09-12T05:09:23.103Z,16.94
2018-09-12T05:11:26.154Z,16.98
2018-09-12T05:13:29.149Z,17.02
2018-09-12T05:15:32.141Z,17.03
2018-09-12T05:17:35.420Z,17.19
2018-09-12T05:19:38.484Z,17.21
2018-09-12T05:21:41.502Z,17.28
2018-09-12T05:23:44.678Z,17.31
2018-09-12T05:25:47.659Z,17.27
2018-09-12T05:27:51.996Z,17.30
2018-09-12T05:29:55.011Z,17.32
2018-09-12T05:31:58.115Z,17.32
2018-09-12T05:34:01.236Z,17.58
2018-09-12T05:36:04.257Z,17.63
2018-09-12T05:38:07.240Z,17.54
2018-09-12T05:40:10.255Z,17.61
2018-09-12T05:42:13.248Z,17.63
2018-09-12T05:44:16.196Z,17.78
2018-09-12T05:46:21.166Z,17.76
2018-09-12T05:48:24.316Z,17.80
2018-09-12T05:50:27.278Z,17.93
2018-09-12T05:52:30.230Z,17.99
2018-09-12T05:54:33.340Z,18.05
2018-09-12T05:56:36.297Z,18.17
2018-09-12T05:58:39.299Z,18.22
2018-09-12T06:00:42.291Z,18.35
2018-09-12T06:02:45.250Z,18.58
2018-09-12T06:04:49.583Z,18.62
2018-09-12T06:06:52.842Z,18.63
2018-09-12T06:08:55.994Z,18.93
2018-09-12T06:10:58.999Z,19.11
2018-09-12T06:13:02.023Z,19.27
2018-09-12T06:15:05.142Z,19.27
2018-09-12T06:17:08.119Z,19.43
2018-09-12T06:19:11.106Z,19.43
2018-09-12T06:21:14.110Z,19.36
2018-09-12T06:23:17.088Z,19.53
2018-09-12T06:25:21.182Z,19.79
2018-09-12T06:27:24.159Z,20.02
2018-09-12T06:29:27.123Z,20.27
2018-09-12T06:31:30.149Z,20.22
2018-09-12T06:33:33.133Z,20.37
2018-09-12T06:35:36.123Z,20.73
2018-09-12T06:37:39.212Z,20.56
2018-09-12T06:39:42.222Z,20.58
2018-09-12T06:41:45.224Z,20.85
2018-09-12T06:43:50.198Z,21.07
2018-09-12T06:45:53.166Z,21.18
2018-09-12T06:47:56.147Z,21.25
2018-09-12T06:49:59.190Z,21.58
2018-09-12T06:52:02.156Z,21.58
2018-09-12T06:54:05.251Z,21.49
2018-09-12T06:56:08.350Z,21.57
2018-09-12T06:58:11.500Z,21.69
2018-09-12T07:00:14.526Z,21.94
2018-09-12T07:02:17.534Z,22.15
2018-09-12T07:04:21.617Z,22.37
2018-09-12T07:06:24.592Z,22.49
2018-09-12T07:08:27.615Z,22.57
2018-09-12T07:10:30.603Z,22.57
2018-09-12T07:12:33.592Z,22.86
2018-09-12T07:14:36.739Z,22.88
2018-09-12T07:16:39.711Z,23.16
2018-09-12T07:18:42.650Z,23.33
2018-09-12T07:20:45.923Z,23.55
2018-09-12T07:22:50.610Z,23.68
2018-09-12T07:24:53.555Z,23.86
2018-09-12T07:26:56.540Z,23.95
2018-09-12T07:28:59.520Z,24.06
2018-09-12T07:31:02.535Z,24.15
2018-09-12T07:33:05.517Z,24.47
2018-09-12T07:35:08.850Z,24.68
2018-09-12T07:37:11.821Z,24.76
2018-09-12T07:39:14.781Z,24.83
2018-09-12T07:41:19.381Z,24.85
2018-09-12T07:43:22.419Z,24.99
2018-09-12T07:45:25.404Z,25.06
2018-09-12T07:47:28.586Z,25.26
2018-09-12T07:49:31.611Z,25.34
2018-09-12T07:51:34.750Z,25.35
2018-09-12T07:53:37.699Z,25.67
2018-09-12T07:55:40.674Z,25.73
2018-09-12T07:57:43.803Z,25.56
2018-09-12T07:59:46.784Z,25.73
2018-09-12T08:01:51.085Z,25.66
2018-09-12T08:03:54.163Z,25.91
2018-09-12T08:05:57.138Z,26.08
2018-09-12T08:08:00.127Z,26.02
2018-09-12T08:10:03.551Z,26.00
2018-09-12T08:12:06.512Z,26.12
2018-09-12T08:14:09.505Z,26.32
2018-09-12T08:16:12.493Z,26.40
2018-09-12T08:18:15.464Z,26.59
2018-09-12T08:20:20.134Z,26.59
2018-09-12T08:22:23.123Z,26.56
2018-09-12T08:24:26.089Z,26.67
2018-09-12T08:26:29.055Z,26.68
2018-09-12T08:28:32.141Z,26.79
2018-09-12T08:30:35.188Z,26.92
2018-09-12T08:32:38.193Z,26.78
2018-09-12T08:34:41.268Z,27.05
2018-09-12T08:36:44.232Z,27.09
2018-09-12T08:38:47.226Z,27.11
2018-09-12T08:40:51.487Z,27.11
2018-09-12T08:42:54.446Z,27.20
2018-09-12T08:44:57.447Z,27.34
2018-09-12T08:47:00.630Z,27.63
2018-09-12T08:49:04.347Z,27.23
2018-09-12T08:51:07.304Z,27.31
2018-09-12T08:53:10.279Z,27.65
2018-09-12T08:55:13.255Z,27.89
2018-09-12T08:57:16.186Z,27.75
2018-09-12T08:59:20.526Z,27.54
2018-09-12T09:01:23.573Z,27.57
2018-09-12T09:03:26.511Z,27.76
2018-09-12T09:05:29.660Z,28.00
2018-09-12T09:07:32.597Z,27.80
2018-09-12T09:09:35.578Z,28.01
2018-09-12T09:11:38.551Z,28.00
2018-09-12T09:13:41.545Z,27.88
2018-09-12T09:15:44.546Z,28.10
2018-09-12T09:17:47.513Z,28.43
2018-09-12T09:19:51.651Z,28.54
2018-09-12T09:21:55.074Z,28.60
2018-09-12T09:23:58.028Z,28.61
2018-09-12T09:26:01.006Z,27.96
2018-09-12T09:28:04.052Z,28.45
2018-09-12T09:30:07.498Z,28.60
2018-09-12T09:32:10.675Z,28.13
2018-09-12T09:34:13.652Z,28.34
2018-09-12T09:36:16.589Z,28.50
2018-09-12T09:38:21.627Z,28.55
2018-09-12T09:40:24.620Z,28.78
2018-09-12T09:42:27.583Z,28.59
2018-09-12T09:44:30.573Z,28.91
2018-09-12T09:46:33.571Z,28.47
2018-09-12T09:48:36.525Z,28.75
2018-09-12T09:50:39.560Z,29.07
2018-09-12T09:52:42.498Z,28.27
2018-09-12T09:54:45.530Z,28.72
2018-09-12T09:56:50.453Z,28.76
2018-09-12T09:58:53.411Z,29.36
2018-09-12T10:01:02.056Z,29.30
2018-09-12T10:03:10.962Z,29.40
2018-09-12T10:05:19.700Z,29.10
2018-09-12T10:07:28.437Z,29.31
2018-09-12T10:09:32.665Z,29.40
2018-09-12T10:11:35.644Z,29.55
2018-09-12T10:13:38.695Z,29.60
2018-09-12T10:15:41.784Z,29.52
2018-09-12T10:17:44.784Z,29.17
2018-09-12T10:19:47.795Z,29.50
2018-09-12T10:21:52.517Z,29.87
2018-09-12T10:23:55.520Z,29.72
2018-09-12T10:25:58.844Z,29.61
2018-09-12T10:28:01.764Z,29.84
2018-09-12T10:30:07.309Z,29.55
2018-09-12T10:32:10.563Z,29.73
2018-09-12T10:34:13.524Z,29.20
2018-09-12T10:36:16.460Z,29.27
2018-09-12T10:38:20.693Z,29.26
2018-09-12T10:40:23.695Z,29.75
2018-09-12T10:42:26.644Z,29.82
2018-09-12T10:44:29.673Z,29.82
2018-09-12T10:46:32.719Z,29.96
2018-09-12T10:48:35.695Z,30.17
2018-09-12T10:50:38.855Z,30.13
2018-09-12T10:52:41.883Z,29.47
2018-09-12T10:54:44.893Z,29.16
2018-09-12T10:56:47.916Z,29.14
2018-09-12T10:58:51.207Z,29.41
2018-09-12T11:00:54.295Z,29.17
2018-09-12T11:02:57.288Z,29.23
2018-09-12T11:05:00.311Z,29.35
2018-09-12T11:07:03.340Z,28.88
2018-09-12T11:09:10.274Z,28.52
2018-09-12T11:11:13.507Z,28.59
2018-09-12T11:13:16.487Z,28.77
2018-09-12T11:15:20.575Z,29.03
2018-09-12T11:17:23.561Z,28.57
2018-09-12T11:19:26.623Z,28.36
2018-09-12T11:21:29.620Z,28.25
2018-09-12T11:23:32.638Z,28.26
2018-09-12T11:25:35.635Z,28.25
2018-09-12T11:27:38.623Z,29.04
2018-09-12T11:29:41.756Z,29.21
2018-09-12T11:31:44.732Z,29.49
2018-09-12T11:33:47.752Z,29.51
2018-09-12T11:35:51.965Z,29.72
2018-09-12T11:37:55.069Z,28.98
2018-09-12T11:39:58.102Z,28.99
2018-09-12T11:42:01.210Z,29.74
2018-09-12T11:44:04.172Z,30.17
2018-09-12T11:46:07.254Z,29.67
2018-09-12T11:48:10.402Z,30.21
2018-09-12T11:50:13.420Z,29.47
2018-09-12T11:52:16.382Z,30.12
2018-09-12T11:54:20.658Z,30.51
2018-09-12T11:56:23.728Z,30.38
2018-09-12T11:58:26.724Z,30.60
2018-09-12T12:00:29.791Z,30.76
2018-09-12T12:02:32.875Z,30.74
2018-09-12T12:04:35.878Z,30.79
2018-09-12T12:06:38.954Z,30.89
2018-09-12T12:08:42.100Z,31.31
2018-09-12T12:10:45.148Z,31.44
2018-09-12T12:12:49.778Z,31.09
2018-09-12T12:14:52.784Z,31.46
2018-09-12T12:16:55.813Z,30.98
2018-09-12T12:18:58.828Z,30.68
2018-09-12T12:21:01.839Z,30.72
2018-09-12T12:23:05.067Z,31.28
2018-09-12T12:25:08.130Z,31.06
2018-09-12T12:27:11.372Z,30.67
2018-09-12T12:29:14.341Z,30.52
2018-09-12T12:31:17.311Z,31.24
2018-09-12T12:33:21.702Z,31.55
2018-09-12T12:35:24.760Z,31.37
2018-09-12T12:37:27.818Z,31.47
2018-09-12T12:39:30.843Z,31.27
2018-09-12T12:41:33.827Z,30.99
2018-09-12T12:43:36.838Z,31.18
2018-09-12T12:45:40.054Z,31.63
2018-09-12T12:47:43.175Z,31.45
2018-09-12T12:49:46.203Z,31.42
2018-09-12T12:51:50.888Z,31.68
2018-09-12T12:53:53.843Z,31.68
2018-09-12T12:55:56.830Z,31.43
2018-09-12T12:57:59.809Z,31.03
2018-09-12T13:00:06.102Z,30.59
2018-09-12T13:02:09.815Z,30.79
2018-09-12T13:04:12.851Z,30.61
2018-09-12T13:06:15.799Z,30.44
2018-09-12T13:08:20.546Z,30.73
2018-09-12T13:10:23.523Z,31.42
2018-09-12T13:12:26.471Z,31.64
2018-09-12T13:14:29.446Z,32.11
2018-09-12T13:16:32.533Z,32.49
2018-09-12T13:18:35.519Z,32.29
2018-09-12T13:20:38.521Z,32.05
2018-09-12T13:22:41.728Z,32.03
2018-09-12T13:24:44.723Z,31.31
2018-09-12T13:26:47.679Z,31.23
2018-09-12T13:28:52.806Z,30.88
2018-09-12T13:30:55.767Z,30.96
2018-09-12T13:32:59.039Z,31.52
2018-09-12T13:35:02.075Z,31.98
2018-09-12T13:37:05.048Z,31.94
2018-09-12T13:39:12.409Z,31.88
2018-09-12T13:41:15.387Z,32.61
2018-09-12T13:43:20.184Z,32.33
2018-09-12T13:45:23.188Z,32.14
2018-09-12T13:47:26.182Z,31.50
2018-09-12T13:49:29.199Z,31.88
2018-09-12T13:51:32.187Z,31.89
2018-09-12T13:53:35.173Z,31.92
2018-09-12T13:55:38.150Z,31.78
2018-09-12T13:57:41.208Z,32.37
2018-09-12T13:59:44.125Z,31.81
2018-09-12T14:01:47.162Z,31.80
2018-09-12T14:03:51.569Z,32.38
2018-09-12T14:05:54.561Z,32.54
2018-09-12T14:07:57.609Z,32.24
2018-09-12T14:10:00.600Z,32.13
2018-09-12T14:12:04.205Z,31.80
2018-09-12T14:14:07.473Z,31.58
2018-09-12T14:16:10.499Z,31.71
2018-09-12T14:18:13.453Z,31.77
2018-09-12T14:20:16.520Z,32.11
2018-09-12T14:22:21.379Z,32.26
2018-09-12T14:24:24.361Z,32.37
2018-09-12T14:26:27.431Z,32.18
2018-09-12T14:28:30.411Z,32.04
2018-09-12T14:30:33.405Z,32.66
2018-09-12T14:32:36.610Z,32.20
2018-09-12T14:34:39.611Z,32.29
2018-09-12T14:36:42.531Z,32.02
2018-09-12T14:38:45.508Z,32.06
2018-09-12T14:40:50.294Z,31.88
2018-09-12T14:42:54.076Z,32.93
2018-09-12T14:44:57.106Z,32.74
2018-09-12T14:47:00.102Z,32.38
2018-09-12T14:49:03.304Z,32.28
2018-09-12T14:51:06.537Z,32.44
2018-09-12T14:53:09.518Z,32.27
2018-09-12T14:55:12.543Z,32.31
2018-09-12T14:57:15.520Z,32.82
2018-09-12T14:59:19.958Z,33.41
2018-09-12T15:01:22.919Z,33.49
2018-09-12T15:03:25.915Z,32.96
2018-09-12T15:05:29.064Z,33.46
2018-09-12T15:07:32.077Z,33.59
2018-09-12T15:09:35.070Z,33.97
2018-09-12T15:11:38.375Z,34.04
2018-09-12T15:13:41.508Z,33.08
2018-09-12T15:15:44.516Z,32.33
2018-09-12T15:17:47.588Z,32.74
2018-09-12T15:19:52.010Z,33.05
2018-09-12T15:21:55.019Z,33.62
2018-09-12T15:23:58.226Z,34.14
2018-09-12T15:26:01.243Z,34.27
2018-09-12T15:28:04.395Z,34.13
2018-09-12T15:30:07.788Z,33.77
2018-09-12T15:32:10.759Z,33.17
2018-09-12T15:34:13.930Z,33.29
2018-09-12T15:36:16.883Z,33.15
2018-09-12T15:38:21.506Z,33.15
2018-09-12T15:40:24.539Z,33.41
2018-09-12T15:42:27.632Z,33.59
2018-09-12T15:44:30.623Z,34.16
2018-09-12T15:46:33.600Z,34.61
2018-09-12T15:48:36.548Z,34.27
2018-09-12T15:50:39.581Z,33.69
2018-09-12T15:52:42.540Z,34.12
2018-09-12T15:54:45.494Z,33.91
2018-09-12T15:56:50.083Z,33.41
2018-09-12T15:58:53.031Z,33.21
2018-09-12T16:00:56.002Z,32.73
2018-09-12T16:02:58.994Z,32.30
2018-09-12T16:05:01.940Z,32.89
2018-09-12T16:07:05.017Z,32.67
2018-09-12T16:09:09.404Z,32.78
2018-09-12T16:11:12.446Z,32.21
2018-09-12T16:13:15.406Z,32.34
2018-09-12T16:15:19.636Z,32.54
2018-09-12T16:17:22.595Z,32.40
2018-09-12T16:19:25.622Z,31.72
2018-09-12T16:21:28.917Z,30.79
2018-09-12T16:23:31.903Z,30.56
2018-09-12T16:25:34.841Z,30.13
2018-09-12T16:27:38.288Z,30.06
2018-09-12T16:29:41.286Z,29.72
2018-09-12T16:31:44.272Z,29.20
2018-09-12T16:33:47.616Z,28.92
2018-09-12T16:35:51.921Z,28.55
2018-09-12T16:37:54.958Z,28.17
2018-09-12T16:39:57.978Z,28.31
2018-09-12T16:42:00.927Z,28.25
2018-09-12T16:44:03.941Z,27.76
2018-09-12T16:46:07.361Z,27.10
2018-09-12T16:48:10.391Z,26.75
2018-09-12T16:50:13.634Z,26.41
2018-09-12T16:52:16.595Z,26.45
2018-09-12T16:54:20.877Z,25.31
2018-09-12T16:56:24.216Z,25.04
2018-09-12T16:58:27.111Z,25.48
2018-09-12T17:00:30.107Z,25.57
2018-09-12T17:02:33.437Z,25.40
2018-09-12T17:04:36.431Z,25.15
2018-09-12T17:06:39.463Z,25.11
2018-09-12T17:08:42.676Z,25.23
2018-09-12T17:10:45.647Z,25.14
2018-09-12T17:12:50.363Z,24.80
2018-09-12T17:14:53.438Z,24.73
2018-09-12T17:16:56.463Z,24.60
2018-09-12T17:18:59.431Z,24.47
2018-09-12T17:21:02.485Z,24.42
2018-09-12T17:23:05.534Z,24.17
2018-09-12T17:25:08.572Z,24.17
2018-09-12T17:27:11.847Z,23.96
2018-09-12T17:29:14.808Z,23.85
2018-09-12T17:31:17.756Z,23.76
2018-09-12T17:33:22.382Z,23.73
2018-09-12T17:35:29.472Z,23.71
2018-09-12T17:37:32.759Z,23.48
2018-09-12T17:39:35.807Z,23.28
2018-09-12T17:41:38.900Z,23.14
2018-09-12T17:43:42.035Z,23.20
2018-09-12T17:45:45.051Z,23.10
2018-09-12T17:47:50.075Z,22.93
2018-09-12T17:49:53.111Z,22.66
2018-09-12T17:51:56.118Z,22.57
2018-09-12T17:53:59.329Z,22.44
2018-09-12T17:56:02.365Z,22.37
2018-09-12T17:58:05.457Z,22.29
2018-09-12T18:00:08.571Z,22.20
2018-09-12T18:02:11.682Z,22.30
2018-09-12T18:04:14.667Z,22.24
2018-09-12T18:06:17.948Z,22.07
2018-09-12T18:08:20.959Z,22.29
2018-09-12T18:10:23.993Z,22.17
2018-09-12T18:12:27.067Z,21.94
2018-09-12T18:14:30.088Z,21.78
2018-09-12T18:16:33.139Z,21.74
2018-09-12T18:18:36.140Z,21.90
2018-09-12T18:20:39.224Z,21.80
2018-09-12T18:22:42.383Z,21.75
2018-09-12T18:24:45.520Z,21.53
2018-09-12T18:26:49.922Z,21.52
2018-09-12T18:28:53.017Z,21.44
2018-09-12T18:30:56.404Z,20.85
2018-09-12T18:32:59.403Z,21.10
2018-09-12T18:35:02.475Z,21.17
2018-09-12T18:37:05.590Z,21.18
2018-09-12T18:39:09.444Z,21.24
2018-09-12T18:41:12.557Z,21.17
2018-09-12T18:43:15.553Z,20.91
2018-09-12T18:45:20.336Z,20.95
2018-09-12T18:47:23.371Z,21.04
2018-09-12T18:49:26.411Z,20.92
2018-09-12T18:51:29.439Z,20.99
2018-09-12T18:53:32.456Z,20.90
2018-09-12T18:55:35.430Z,20.90
2018-09-12T18:57:38.450Z,20.84
2018-09-12T18:59:41.618Z,20.88
2018-09-12T19:01:44.607Z,20.77
2018-09-12T19:03:47.639Z,20.84
2018-09-12T19:05:52.307Z,20.81
2018-09-12T19:07:55.316Z,20.77
2018-09-12T19:09:58.317Z,20.70
2018-09-12T19:12:01.346Z,20.63
2018-09-12T19:14:04.334Z,20.65
2018-09-12T19:16:07.355Z,20.48
2018-09-12T19:18:10.392Z,20.52
2018-09-12T19:20:13.407Z,20.41
2018-09-12T19:22:16.390Z,20.32
2018-09-12T19:24:20.617Z,20.21
2018-09-12T19:26:23.676Z,20.32
2018-09-12T19:28:26.651Z,20.34
2018-09-12T19:30:29.733Z,20.35
2018-09-12T19:32:32.735Z,20.40
2018-09-12T19:34:35.717Z,20.36
2018-09-12T19:36:39.280Z,20.32
2018-09-12T19:38:42.407Z,20.32
2018-09-12T19:40:45.413Z,20.16
2018-09-12T19:42:49.591Z,20.16
2018-09-12T19:44:52.648Z,20.12
2018-09-12T19:46:55.645Z,20.08
2018-09-12T19:48:58.657Z,19.83
2018-09-12T19:51:01.700Z,19.90
2018-09-12T19:53:04.789Z,19.92
2018-09-12T19:55:07.862Z,19.85
2018-09-12T19:57:11.579Z,19.88
2018-09-12T19:59:14.586Z,19.97
2018-09-12T20:01:17.718Z,20.08
2018-09-12T20:03:21.882Z,19.95
2018-09-12T20:05:24.922Z,19.84
2018-09-12T20:07:29.105Z,19.70
2018-09-12T20:09:32.052Z,19.78
2018-09-12T20:11:35.063Z,19.72
2018-09-12T20:13:38.119Z,19.58
2018-09-12T20:15:41.304Z,19.62
2018-09-12T20:17:44.404Z,19.67
2018-09-12T20:19:47.535Z,19.79
2018-09-12T20:21:52.581Z,19.62
2018-09-12T20:23:55.677Z,19.46
2018-09-12T20:25:58.561Z,19.52
2018-09-12T20:28:01.548Z,19.50
2018-09-12T20:30:04.687Z,19.51
2018-09-12T20:32:07.637Z,19.59
2018-09-12T20:34:10.757Z,19.64
2018-09-12T20:36:13.726Z,19.60
2018-09-12T20:38:16.794Z,19.43
2018-09-12T20:40:21.271Z,19.59
2018-09-12T20:42:24.416Z,19.57
2018-09-12T20:44:27.388Z,19.40
2018-09-12T20:46:30.345Z,19.46
2018-09-12T20:48:33.521Z,19.34
2018-09-12T20:50:47.789Z,19.49
2018-09-12T20:52:52.527Z,19.32
2018-09-12T20:54:55.589Z,19.26
2018-09-12T20:56:59.911Z,19.34
2018-09-12T20:59:02.908Z,19.43
2018-09-12T21:01:06.028Z,19.30
2018-09-12T21:03:09.196Z,19.40
2018-09-12T21:05:12.204Z,19.51
2018-09-12T21:07:15.339Z,19.57
2018-09-12T21:09:18.359Z,19.58
2018-09-12T21:11:21.293Z,19.41
2018-09-12T21:13:24.664Z,19.34
2018-09-12T21:15:27.693Z,19.36
2018-09-12T21:17:32.191Z,19.36
2018-09-12T21:19:35.256Z,19.43
2018-09-12T21:21:38.306Z,19.37
2018-09-12T21:23:41.307Z,19.14
2018-09-12T21:25:44.308Z,19.10
2018-09-12T21:27:47.322Z,19.24
2018-09-12T21:29:50.307Z,19.21
2018-09-12T21:31:53.360Z,19.33
2018-09-12T21:33:56.591Z,19.27
2018-09-12T21:36:01.152Z,19.19
2018-09-12T21:38:04.310Z,19.30
2018-09-12T21:40:07.527Z,19.17
2018-09-12T21:42:10.538Z,19.23
2018-09-12T21:44:13.542Z,19.10
2018-09-12T21:46:16.584Z,19.15
2018-09-12T21:48:19.585Z,19.16
2018-09-12T21:50:22.562Z,19.02
2018-09-12T21:52:25.548Z,19.03
2018-09-12T21:54:30.370Z,19.17
2018-09-12T21:56:33.419Z,19.13
2018-09-12T21:58:36.403Z,19.31
2018-09-12T22:00:39.883Z,19.02
2018-09-12T22:02:42.890Z,19.02
2018-09-12T22:04:45.861Z,19.05
2018-09-12T22:06:49.063Z,19.08
2018-09-12T22:08:52.168Z,19.09
2018-09-12T22:10:55.191Z,18.92
2018-09-12T22:12:59.401Z,18.90
2018-09-12T22:15:02.497Z,19.05
2018-09-12T22:17:05.491Z,19.06
2018-09-12T22:19:08.641Z,19.03
2018-09-12T22:21:11.603Z,19.20
2018-09-12T22:23:14.580Z,19.16
2018-09-12T22:25:17.588Z,19.07
2018-09-12T22:27:20.617Z,19.03
2018-09-12T22:29:23.616Z,18.97
2018-09-12T22:31:26.877Z,18.98
2018-09-12T22:33:31.412Z,19.04
2018-09-12T22:35:34.404Z,19.15
2018-09-12T22:37:37.543Z,19.16
2018-09-12T22:39:40.604Z,19.11
2018-09-12T22:41:43.631Z,19.24
2018-09-12T22:43:46.639Z,19.10
2018-09-12T22:45:49.658Z,19.09
2018-09-12T22:47:52.657Z,19.08
2018-09-12T22:49:55.672Z,19.02
2018-09-12T22:51:59.954Z,19.03
2018-09-12T22:54:02.971Z,19.12
2018-09-12T22:56:06.038Z,19.03
2018-09-12T22:58:09.031Z,18.91
2018-09-12T23:00:12.079Z,18.90
2018-09-12T23:02:15.067Z,19.14
2018-09-12T23:04:18.055Z,19.26
2018-09-12T23:06:21.066Z,19.08
2018-09-12T23:08:24.037Z,18.89
2018-09-12T23:10:27.004Z,18.83
2018-09-12T23:12:31.458Z,18.95
2018-09-12T23:14:34.487Z,18.78
2018-09-12T23:16:37.734Z,18.81
2018-09-12T23:18:40.903Z,18.84
2018-09-12T23:20:43.963Z,18.78
2018-09-12T23:22:46.949Z,18.81
2018-09-12T23:24:49.935Z,18.84
2018-09-12T23:26:52.920Z,18.89
2018-09-12T23:28:55.923Z,18.91
2018-09-12T23:31:00.676Z,18.86
2018-09-12T23:33:03.694Z,18.67
2018-09-12T23:35:06.994Z,18.79
2018-09-12T23:37:09.980Z,18.77
2018-09-12T23:39:13.686Z,19.03
2018-09-12T23:41:16.704Z,18.84
2018-09-12T23:43:19.699Z,18.83
2018-09-12T23:45:22.695Z,18.78
2018-09-12T23:47:25.698Z,18.63
2018-09-12T23:49:30.250Z,18.75
2018-09-12T23:51:33.242Z,18.60
2018-09-12T23:53:36.240Z,18.59
2018-09-12T23:55:39.351Z,18.81
2018-09-12T23:57:42.434Z,18.79
2018-09-12T23:59:45.435Z,18.63
